Time;durP1;ratioP1;P1;durP2;ratioP2;P2;SDS_P1;SDS_P2;PMS_P1;PMS_P2;Temp;Humidity;BMP_temperature;BMP_pressure;BME280_temperature;BME280_humidity;BME280_pressure;Samples;Min_cycle;Max_cycle;Signal;HPM_P1;HPM_P2
2023/09/26 00:01:26;;;;;;;10.77;7.70;;;;;;;14.78;100.00;101743.53;5050852;28;20484;-70
2023/09/26 00:03:54;;;;;;;15.02;7.82;;;;;;;14.77;100.00;101741.84;5067493;28;20080;-70
2023/09/26 00:06:23;;;;;;;9.80;7.88;;;;;;;14.76;100.00;101742.75;5053008;28;20503;-69
2023/09/26 00:08:54;;;;;;;9.27;7.40;;;;;;;14.75;100.00;101742.84;5064880;28;20051;-69
2023/09/26 00:11:21;;;;;;;10.75;7.25;;;;;;;14.72;100.00;101740.38;5043282;28;20164;-70
2023/09/26 00:13:50;;;;;;;9.52;8.25;;;;;;;14.69;100.00;101742.28;5067900;28;20059;-70
2023/09/26 00:16:18;;;;;;;14.48;8.30;;;;;;;14.69;100.00;101741.44;5042865;28;20482;-68
2023/09/26 00:18:45;;;;;;;8.45;7.30;;;;;;;14.67;100.00;101736.19;5050360;28;20126;-70
2023/09/26 00:21:13;;;;;;;9.15;7.82;;;;;;;14.66;100.00;101729.19;5023934;28;20105;-69
2023/09/26 00:23:40;;;;;;;9.75;7.63;;;;;;;14.64;100.00;101728.44;5045024;28;20112;-70
2023/09/26 00:26:08;;;;;;;10.15;7.60;;;;;;;14.66;100.00;101736.28;5044654;28;20174;-70
2023/09/26 00:28:35;;;;;;;9.52;7.05;;;;;;;14.66;100.00;101733.66;5047409;28;20137;-71
2023/09/26 00:31:04;;;;;;;9.18;7.82;;;;;;;14.66;100.00;101733.66;5058800;28;20052;-70
2023/09/26 00:33:32;;;;;;;9.32;7.82;;;;;;;14.64;100.00;101731.09;5065438;28;20072;-69
2023/09/26 00:36:07;;;;;;;8.48;6.93;;;;;;;14.63;100.00;101732.03;5044261;28;20045;-69
2023/09/26 00:38:35;;;;;;;8.98;7.28;;;;;;;14.63;100.00;101728.50;5038847;28;20041;-69
2023/09/26 00:41:07;;;;;;;7.70;6.90;;;;;;;14.63;100.00;101726.75;5025257;28;20491;-70
2023/09/26 00:43:37;;;;;;;8.93;8.02;;;;;;;14.63;100.00;101729.41;5062386;28;20929;-71
2023/09/26 00:46:05;;;;;;;11.82;8.07;;;;;;;14.65;100.00;101731.94;5027995;28;20131;-69
2023/09/26 00:48:33;;;;;;;9.65;7.85;;;;;;;14.66;100.00;101731.00;5031820;28;20081;-72
2023/09/26 00:51:00;;;;;;;10.00;6.88;;;;;;;14.64;100.00;101730.25;5048133;28;20068;-71
2023/09/26 00:53:29;;;;;;;9.80;7.28;;;;;;;14.64;100.00;101723.16;5048722;28;20057;-71
2023/09/26 00:55:58;;;;;;;11.52;8.38;;;;;;;14.63;100.00;101726.75;5047122;28;20057;-71
2023/09/26 00:58:25;;;;;;;13.50;8.32;;;;;;;14.64;100.00;101732.91;5047691;28;20477;-69
2023/09/26 01:00:56;;;;;;;10.27;8.20;;;;;;;14.64;100.00;101735.53;5033628;28;20410;-67
2023/09/26 01:03:23;;;;;;;12.52;9.73;;;;;;;14.64;100.00;101728.44;5063568;28;20065;-69
2023/09/26 01:05:51;;;;;;;12.15;7.90;;;;;;;14.62;100.00;101726.81;5061625;28;20064;-70
2023/09/26 01:08:18;;;;;;;10.95;8.68;;;;;;;14.61;100.00;101719.81;5059060;28;20097;-69
2023/09/26 01:10:46;;;;;;;11.60;8.10;;;;;;;14.59;100.00;101721.69;5030651;28;20518;-69
2023/09/26 01:13:13;;;;;;;10.07;7.72;;;;;;;14.59;100.00;101722.56;5065936;28;20994;-71
2023/09/26 01:15:42;;;;;;;7.57;6.53;;;;;;;14.57;100.00;101716.47;5048618;28;20144;-69
2023/09/26 01:18:12;;;;;;;10.40;8.00;;;;;;;14.58;100.00;101709.38;5047309;28;20243;-69
2023/09/26 01:20:43;;;;;;;12.18;7.90;;;;;;;14.58;100.00;101717.34;5061980;28;20060;-69
2023/09/26 01:23:14;;;;;;;9.05;8.18;;;;;;;14.57;100.00;101713.84;5026479;28;20060;-68
2023/09/26 01:25:43;;;;;;;15.43;8.68;;;;;;;14.57;100.00;101711.19;5034477;28;20063;-68
2023/09/26 01:28:17;;;;;;;9.05;8.15;;;;;;;14.58;100.00;101719.97;5045373;28;20044;-68
2023/09/26 01:30:46;;;;;;;10.77;7.55;;;;;;;14.59;100.00;101719.91;5028238;28;20191;-69
2023/09/26 01:33:19;;;;;;;10.02;8.57;;;;;;;14.59;100.00;101716.38;5029863;28;20053;-69
2023/09/26 01:35:48;;;;;;;13.18;8.60;;;;;;;14.59;100.00;101716.38;5059291;28;20048;-68
2023/09/26 01:38:17;;;;;;;14.48;9.00;;;;;;;14.56;100.00;101712.13;5038345;28;21026;-70
2023/09/26 01:40:47;;;;;;;10.45;8.90;;;;;;;14.53;100.00;101709.66;5019565;28;20121;-69
2023/09/26 01:43:15;;;;;;;19.35;8.90;;;;;;;14.51;100.00;101714.19;5051063;28;20109;-71
2023/09/26 01:45:43;;;;;;;11.30;8.73;;;;;;;14.51;100.00;101706.25;5044856;28;20076;-69
2023/09/26 01:48:12;;;;;;;10.10;8.65;;;;;;;14.48;100.00;101706.41;5063807;28;20099;-68
2023/09/26 01:50:40;;;;;;;10.90;8.80;;;;;;;14.47;100.00;101707.34;5048195;28;20053;-68
2023/09/26 01:53:09;;;;;;;11.48;8.40;;;;;;;14.44;100.00;101696.91;5060930;28;20483;-68
2023/09/26 01:55:39;;;;;;;10.40;9.38;;;;;;;14.42;100.00;101699.66;5063764;28;20146;-69
2023/09/26 01:58:06;;;;;;;12.43;8.95;;;;;;;14.41;100.00;101689.16;5045189;28;20048;-69
2023/09/26 02:00:34;;;;;;;17.13;10.38;;;;;;;14.40;100.00;101698.03;5062019;28;20048;-67
2023/09/26 02:03:03;;;;;;;10.70;9.55;;;;;;;14.39;100.00;101698.97;5044611;28;20076;-68
2023/09/26 02:05:31;;;;;;;13.45;10.05;;;;;;;14.38;100.00;101691.97;5041241;28;20148;-68
2023/09/26 02:07:58;;;;;;;11.18;9.68;;;;;;;14.35;100.00;101698.28;5057604;28;20049;-70
2023/09/26 02:10:25;;;;;;;16.02;10.95;;;;;;;14.32;100.00;101692.31;5039307;28;20060;-70
2023/09/26 02:12:53;;;;;;;19.23;11.32;;;;;;;14.26;100.00;101698.81;5058845;28;21545;-72
2023/09/26 02:15:20;;;;;;;14.25;10.40;;;;;;;14.23;100.00;101698.13;5061495;28;20495;-69
2023/09/26 02:17:47;;;;;;;11.48;10.00;;;;;;;14.23;100.00;101698.13;5041736;28;20408;-70
2023/09/26 02:20:17;;;;;;;14.07;10.95;;;;;;;14.20;100.00;101699.19;5066598;28;20115;-70
2023/09/26 02:22:50;;;;;;;12.82;11.48;;;;;;;14.19;100.00;101700.97;5045566;28;20145;-70
2023/09/26 02:25:19;;;;;;;13.13;10.38;;;;;;;14.15;100.00;101698.59;5060311;28;20198;-69
2023/09/26 02:27:47;;;;;;;11.57;10.38;;;;;;;14.13;100.00;101689.88;5056090;28;20517;-69
2023/09/26 02:30:17;;;;;;;12.15;10.18;;;;;;;14.12;100.00;101696.09;5067543;28;20094;-69
2023/09/26 02:32:45;;;;;;;11.70;10.52;;;;;;;14.09;100.00;101696.28;5062344;28;20057;-72
2023/09/26 02:35:14;;;;;;;13.50;11.60;;;;;;;14.09;100.00;101705.06;5059931;28;20506;-68
2023/09/26 02:37:43;;;;;;;14.43;11.55;;;;;;;14.07;100.00;101704.31;5065613;28;20084;-71
2023/09/26 02:40:11;;;;;;;13.93;11.43;;;;;;;14.07;100.00;101699.03;5047558;28;20057;-70
2023/09/26 02:42:40;;;;;;;11.45;9.85;;;;;;;14.05;100.00;101708.84;5066872;28;20553;-69
2023/09/26 02:45:08;;;;;;;12.27;10.98;;;;;;;14.03;100.00;101701.94;5045346;28;20102;-70
2023/09/26 02:47:36;;;;;;;14.65;12.25;;;;;;;13.99;100.00;101705.69;5030396;28;20495;-71
2023/09/26 02:50:05;;;;;;;13.05;10.73;;;;;;;13.96;100.00;101698.78;5021871;28;20110;-71
2023/09/26 02:52:37;;;;;;;12.98;11.68;;;;;;;13.93;100.00;101697.16;5028905;28;20049;-70
2023/09/26 02:55:07;;;;;;;14.88;11.80;;;;;;;13.91;100.00;101700.81;5028439;28;20056;-70
2023/09/26 02:57:35;;;;;;;13.10;11.35;;;;;;;13.90;100.00;101704.41;5028830;28;20045;-69
2023/09/26 03:00:15;;;;;;;16.75;11.18;;;;;;;13.89;100.00;101705.34;5047219;28;20134;-70
2023/09/26 03:02:45;;;;;;;13.40;11.30;;;;;;;13.87;100.00;101702.78;5047313;28;20052;-68
2023/09/26 03:05:13;;;;;;;13.35;11.95;;;;;;;13.87;100.00;101702.78;5064682;28;20499;-69
2023/09/26 03:07:40;;;;;;;13.70;12.30;;;;;;;13.87;100.00;101715.19;5060948;28;20109;-67
2023/09/26 03:10:08;;;;;;;14.02;12.13;;;;;;;13.83;100.00;101703.06;5063243;28;20064;-67
2023/09/26 03:12:36;;;;;;;15.10;11.68;;;;;;;13.83;100.00;101703.91;5046732;28;20079;-69
2023/09/26 03:15:03;;;;;;;18.50;12.10;;;;;;;13.80;100.00;101704.06;5068337;28;20090;-68
2023/09/26 03:17:31;;;;;;;15.05;11.77;;;;;;;13.79;100.00;101707.66;5050285;28;20140;-69
2023/09/26 03:19:58;;;;;;;14.60;12.20;;;;;;;13.76;100.00;101705.16;5066638;28;20183;-70
2023/09/26 03:22:25;;;;;;;14.25;11.55;;;;;;;13.76;100.00;101706.97;5048824;28;20529;-70
2023/09/26 03:24:54;;;;;;;14.32;11.60;;;;;;;13.76;100.00;101704.31;5047656;28;20134;-67
2023/09/26 03:27:23;;;;;;;14.35;12.73;;;;;;;13.73;100.00;101697.38;5067396;28;20076;-67
2023/09/26 03:29:50;;;;;;;13.82;11.82;;;;;;;13.74;100.00;101698.28;5064905;28;20056;-71
2023/09/26 03:32:18;;;;;;;14.55;11.60;;;;;;;13.71;100.00;101698.44;5044849;28;20529;-69
2023/09/26 03:34:45;;;;;;;13.77;11.88;;;;;;;13.70;100.00;101688.78;5046959;28;20538;-66
2023/09/26 03:37:13;;;;;;;16.75;13.35;;;;;;;13.67;100.00;101688.00;5050703;28;20068;-72
2023/09/26 03:39:40;;;;;;;13.43;12.00;;;;;;;13.66;100.00;101683.66;5064492;28;20490;-75
2023/09/26 03:42:08;;;;;;;14.18;11.40;;;;;;;13.64;100.00;101682.91;5031819;28;20566;-75
2023/09/26 03:44:36;;;;;;;15.05;13.50;;;;;;;13.62;100.00;101682.09;5049134;28;20045;-71
2023/09/26 03:47:04;;;;;;;13.90;12.43;;;;;;;13.61;100.00;101688.34;5050131;28;20032;-72
2023/09/26 03:49:33;;;;;;;13.15;11.70;;;;;;;13.58;100.00;101683.22;5014307;28;20126;-73
2023/09/26 03:52:01;;;;;;;18.08;13.63;;;;;;;13.54;100.00;101679.03;5069930;28;20052;-73
2023/09/26 03:54:32;;;;;;;15.90;14.18;;;;;;;13.50;100.00;101677.47;5045609;28;20059;-74
2023/09/26 03:56:59;;;;;;;15.20;12.48;;;;;;;13.47;100.00;101679.47;5047805;28;20091;-73
2023/09/26 03:59:28;;;;;;;14.93;13.38;;;;;;;13.46;100.00;101681.22;5052221;28;21159;-73
2023/09/26 04:01:55;;;;;;;15.05;13.15;;;;;;;13.43;100.00;101678.75;5067886;28;20538;-75
2023/09/26 04:04:27;;;;;;;14.85;13.25;;;;;;;13.41;100.00;101678.81;5015234;28;20573;-77
2023/09/26 04:07:18;;;;;;;14.18;12.27;;;;;;;13.40;100.00;101676.28;5047925;28;20040;-78
2023/09/26 04:09:47;;;;;;;16.23;13.43;;;;;;;13.38;100.00;101676.38;5067153;28;20082;-75
2023/09/26 04:12:24;;;;;;;16.77;13.65;;;;;;;13.36;100.00;101674.72;5029719;28;20053;-76
2023/09/26 04:14:53;;;;;;;15.07;13.55;;;;;;;13.35;100.00;101675.69;5048445;28;20406;-76
2023/09/26 04:17:20;;;;;;;16.45;14.75;;;;;;;13.32;100.00;101673.19;5051802;28;20101;-75
2023/09/26 04:19:51;;;;;;;18.17;14.13;;;;;;;13.31;100.00;101667.03;5068025;28;20074;-73
2023/09/26 04:22:20;;;;;;;19.67;13.65;;;;;;;13.31;100.00;101671.47;5041822;28;20076;-75
2023/09/26 04:24:50;;;;;;;15.90;14.32;;;;;;;13.27;100.00;101668.13;5043635;28;20063;-74
2023/09/26 04:27:18;;;;;;;18.75;14.75;;;;;;;13.26;100.00;101668.22;5024948;28;20041;-74
2023/09/26 04:29:45;;;;;;;18.65;14.48;;;;;;;13.25;100.00;101663.88;5042705;28;20053;-74
2023/09/26 04:32:14;;;;;;;20.10;15.02;;;;;;;13.25;100.00;101663.88;5046269;28;20056;-72
2023/09/26 04:34:50;;;;;;;19.03;15.17;;;;;;;13.20;100.00;101664.09;5061744;28;20087;-76
2023/09/26 04:37:18;;;;;;;17.50;14.90;;;;;;;13.19;100.00;101657.09;5044299;28;20175;-74
2023/09/26 04:39:47;;;;;;;16.40;14.57;;;;;;;13.17;100.00;101661.63;5042967;28;20491;-73
2023/09/26 04:42:15;;;;;;;16.00;14.40;;;;;;;13.17;100.00;101654.53;5045049;28;20401;-73
2023/09/26 04:44:46;;;;;;;16.02;13.30;;;;;;;13.16;100.00;101658.13;5046193;28;20051;-74
2023/09/26 04:47:13;;;;;;;18.25;14.98;;;;;;;13.17;100.00;101659.81;5066147;28;20094;-74
2023/09/26 04:49:42;;;;;;;17.88;16.17;;;;;;;13.15;100.00;101658.22;5049915;28;20041;-73
2023/09/26 04:52:11;;;;;;;19.30;15.27;;;;;;;13.15;100.00;101655.56;5068702;28;20098;-73
2023/09/26 04:54:43;;;;;;;18.45;15.32;;;;;;;13.14;100.00;101654.69;5046769;28;20052;-73
2023/09/26 04:57:11;;;;;;;20.80;17.27;;;;;;;13.13;100.00;101658.28;5065829;28;20056;-72
2023/09/26 04:59:40;;;;;;;18.30;16.48;;;;;;;13.12;100.00;101653.94;5045316;28;20057;-74
2023/09/26 05:02:08;;;;;;;18.63;16.65;;;;;;;13.11;100.00;101649.59;5068406;28;20052;-75
2023/09/26 05:04:37;;;;;;;25.80;17.92;;;;;;;13.11;100.00;101649.59;5047721;28;20107;-72
2023/09/26 05:07:07;;;;;;;19.35;17.13;;;;;;;13.10;100.00;101652.28;5065311;28;20083;-74
2023/09/26 05:09:37;;;;;;;23.52;16.30;;;;;;;13.10;100.00;101650.53;5024205;28;20044;-73
2023/09/26 05:12:05;;;;;;;23.13;17.60;;;;;;;13.12;100.00;101650.44;5048299;28;20052;-72
2023/09/26 05:14:33;;;;;;;18.42;16.40;;;;;;;13.13;100.00;101649.50;5061879;28;20102;-74
2023/09/26 05:17:06;;;;;;;18.15;16.23;;;;;;;13.14;100.00;101649.41;5046377;28;20051;-75
2023/09/26 05:19:34;;;;;;;19.42;16.75;;;;;;;13.17;100.00;101651.03;5051168;28;20067;-71
2023/09/26 05:22:02;;;;;;;18.70;16.50;;;;;;;13.16;100.00;101644.03;5044822;28;20642;-74
2023/09/26 05:24:30;;;;;;;18.08;16.00;;;;;;;13.18;100.00;101652.72;5060925;28;20057;-75
2023/09/26 05:26:58;;;;;;;20.60;17.98;;;;;;;13.20;100.00;101655.31;5036890;28;20057;-74
2023/09/26 05:29:26;;;;;;;19.30;17.27;;;;;;;13.20;100.00;101653.53;5051216;28;20150;-73
2023/09/26 05:31:53;;;;;;;21.85;17.58;;;;;;;13.23;100.00;101647.22;5035731;28;20040;-73
2023/09/26 05:34:21;;;;;;;18.52;16.52;;;;;;;13.27;100.00;101648.78;5034180;28;20105;-77
2023/09/26 05:36:50;;;;;;;24.70;16.70;;;;;;;13.30;100.00;101649.47;5032397;28;20045;-76
2023/09/26 05:39:17;;;;;;;21.00;18.15;;;;;;;13.36;100.00;101653.56;5016906;28;20065;-77
2023/09/26 05:41:44;;;;;;;20.48;17.80;;;;;;;13.41;100.00;101654.16;5069580;28;20106;-78
2023/09/26 05:44:13;;;;;;;18.70;16.75;;;;;;;13.46;100.00;101657.41;5046772;28;20037;-76
2023/09/26 05:46:40;;;;;;;19.42;16.85;;;;;;;13.50;100.00;101656.31;5059956;28;20064;-74
2023/09/26 05:49:07;;;;;;;19.92;17.45;;;;;;;13.56;100.00;101657.78;5022910;28;20090;-76
2023/09/26 05:51:35;;;;;;;19.70;16.10;;;;;;;13.62;100.00;101660.09;5062083;28;20084;-77
2023/09/26 05:54:02;;;;;;;17.92;16.00;;;;;;;13.69;100.00;101653.53;5062702;28;20071;-75
2023/09/26 05:56:44;;;;;;;18.52;16.63;;;;;;;13.75;100.00;101657.63;5062108;28;20048;-76
2023/09/26 05:59:12;;;;;;;20.98;16.85;;;;;;;13.81;100.00;101655.47;5068235;28;20106;-76
2023/09/26 06:01:40;;;;;;;25.33;17.67;;;;;;;13.86;100.00;101661.34;5067225;28;20076;-78
2023/09/26 06:04:08;;;;;;;19.42;17.33;;;;;;;13.92;100.00;101660.19;5041651;28;20080;-77
2023/09/26 06:06:35;;;;;;;25.98;19.33;;;;;;;13.98;100.00;101661.63;5063141;28;20060;-76
2023/09/26 06:09:03;;;;;;;19.55;17.45;;;;;;;14.00;100.00;101662.38;5020498;28;20047;-76
2023/09/26 06:11:31;;;;;;;22.23;17.67;;;;;;;14.04;100.00;101659.47;5041850;28;20147;-76
2023/09/26 06:13:58;;;;;;;20.38;16.80;;;;;;;14.12;100.00;101664.34;5065757;28;20060;-77
2023/09/26 06:16:25;;;;;;;18.38;16.50;;;;;;;14.20;100.00;101670.06;5032406;28;20060;-75
2023/09/26 06:18:54;;;;;;;19.88;17.70;;;;;;;14.28;100.00;101670.47;5032064;28;20052;-77
2023/09/26 06:21:22;;;;;;;20.60;16.88;;;;;;;14.34;100.00;101669.25;5030310;28;20402;-74
2023/09/26 06:23:49;;;;;;;24.33;17.95;;;;;;;14.44;100.00;101676.56;5049302;28;20087;-77
2023/09/26 06:26:18;;;;;;;19.55;17.38;;;;;;;14.53;100.00;101675.22;5066247;28;20052;-75
2023/09/26 06:28:45;;;;;;;20.02;17.88;;;;;;;14.61;100.00;101680.06;5064075;28;20060;-75
2023/09/26 06:31:14;;;;;;;21.98;16.60;;;;;;;14.69;100.00;101675.16;5067859;28;20541;-77
2023/09/26 06:33:41;;;;;;;18.80;16.77;;;;;;;14.75;100.00;101677.44;5052620;28;20056;-75
2023/09/26 06:36:13;;;;;;;27.02;17.95;;;;;;;14.79;100.00;101678.97;5048869;28;20137;-76
2023/09/26 06:38:45;;;;;;;21.67;17.20;;;;;;;14.86;100.00;101682.09;5051438;28;20069;-75
2023/09/26 06:41:13;;;;;;;21.17;17.60;;;;;;;14.91;100.00;101682.69;5047210;28;20478;-75
2023/09/26 06:43:40;;;;;;;19.88;17.77;;;;;;;15.00;100.00;101676.84;5065736;28;20387;-76
2023/09/26 06:46:08;;;;;;;19.45;17.45;;;;;;;15.06;100.00;101679.09;5060305;28;20099;-77
2023/09/26 06:48:41;;;;;;;20.58;17.40;;;;;;;15.13;100.00;101675.16;5052843;28;20064;-77
2023/09/26 06:51:09;;;;;;;19.20;17.17;;;;;;;15.20;100.00;101673.81;5038589;28;20076;-75
2023/09/26 06:53:37;;;;;;;18.58;16.58;;;;;;;15.30;100.00;101665.28;5053092;28;20057;-76
2023/09/26 06:56:06;;;;;;;18.75;16.77;;;;;;;15.38;100.00;101668.31;5039757;28;20042;-74
2023/09/26 06:58:35;;;;;;;23.63;17.88;;;;;;;15.50;100.00;101667.53;5052752;28;20060;-80
2023/09/26 07:01:03;;;;;;;21.15;16.52;;;;;;;15.60;100.00;101671.31;5051696;28;20457;-79
2023/09/26 07:03:32;;;;;;;21.08;16.80;;;;;;;15.68;100.00;101670.88;5055646;28;20122;-77
2023/09/26 07:06:08;;;;;;;17.48;15.55;;;;;;;15.87;100.00;101670.53;5038680;28;20052;-75
2023/09/26 07:08:35;;;;;;;18.98;16.95;;;;;;;15.99;100.00;101668.91;5050300;28;20561;-75
2023/09/26 07:11:03;;;;;;;19.63;16.50;;;;;;;16.11;100.00;101663.63;5053140;28;20491;-76
2023/09/26 07:13:34;;;;;;;18.50;15.95;;;;;;;16.24;100.00;101662.81;5035999;28;20144;-75
2023/09/26 07:16:15;;;;;;;19.20;17.10;;;;;;;16.34;100.00;101669.22;5068829;28;20086;-76
2023/09/26 07:18:44;;;;;;;20.83;17.02;;;;;;;16.45;100.00;101669.38;5051092;28;20052;-79
2023/09/26 07:21:11;;;;;;;17.98;16.08;;;;;;;16.46;100.00;101663.09;5032617;28;20090;-75
2023/09/26 07:23:39;;;;;;;20.42;15.27;;;;;;;16.54;100.00;101663.44;5039010;28;20102;-78
2023/09/26 07:26:12;;;;;;;19.02;16.50;;;;;;;16.71;100.00;101675.59;5051505;28;20048;-77
2023/09/26 07:28:44;;;;;;;17.67;15.82;;;;;;;16.86;100.00;101671.06;5066463;28;20691;-75
2023/09/26 07:31:13;;;;;;;18.65;15.63;;;;;;;16.90;100.00;101662.75;5033018;28;20053;-75
2023/09/26 07:33:41;;;;;;;20.52;15.35;;;;;;;17.06;100.00;101667.84;5050170;28;20110;-75
2023/09/26 07:36:10;;;;;;;19.17;14.55;;;;;;;17.23;100.00;101666.69;5035761;28;20052;-77
2023/09/26 07:38:37;;;;;;;17.30;15.50;;;;;;;17.34;100.00;101665.94;5051735;28;20098;-77
2023/09/26 07:41:07;;;;;;;21.63;17.05;;;;;;;17.32;100.00;101667.84;5031216;28;20094;-77
2023/09/26 07:43:35;;;;;;;19.05;15.57;;;;;;;17.35;100.00;101673.81;5051403;28;20145;-79
2023/09/26 07:46:04;;;;;;;20.90;16.95;;;;;;;17.45;100.00;101676.66;5049715;28;20121;-77
2023/09/26 07:48:33;;;;;;;20.63;16.40;;;;;;;17.54;100.00;101675.16;5050744;28;20056;-75
2023/09/26 07:51:01;;;;;;;20.70;15.10;;;;;;;17.74;99.17;101671.94;5035916;28;20464;-75
2023/09/26 07:53:28;;;;;;;19.77;15.48;;;;;;;17.93;98.17;101676.78;5071064;28;20053;-75
2023/09/26 07:55:56;;;;;;;22.17;15.77;;;;;;;18.02;97.22;101672.59;5030926;28;20099;-75
2023/09/26 07:58:24;;;;;;;18.33;15.85;;;;;;;18.11;96.19;101677.25;5052603;28;20098;-77
2023/09/26 08:00:58;;;;;;;19.23;15.02;;;;;;;18.27;95.49;101674.28;5047375;28;20045;-76
2023/09/26 08:03:26;;;;;;;18.75;16.25;;;;;;;18.36;94.89;101677.09;5052611;28;20052;-76
2023/09/26 08:06:04;;;;;;;16.58;14.20;;;;;;;18.51;94.23;101672.44;5035267;28;20040;-76
2023/09/26 08:08:31;;;;;;;20.25;14.82;;;;;;;18.69;93.52;101675.56;5014032;28;20451;-75
2023/09/26 08:11:08;;;;;;;18.20;16.10;;;;;;;18.78;92.55;101676.66;5048209;28;20076;-76
2023/09/26 08:13:37;;;;;;;23.10;15.02;;;;;;;18.91;92.07;101677.41;5038377;28;20048;-77
2023/09/26 08:16:05;;;;;;;22.83;14.63;;;;;;;18.99;91.24;101683.00;5031065;28;20067;-75
2023/09/26 08:18:32;;;;;;;16.55;14.68;;;;;;;19.08;89.83;101676.94;5068914;28;20145;-83
2023/09/26 08:21:00;;;;;;;17.05;15.25;;;;;;;19.22;89.98;101683.88;5048709;28;20551;-76
2023/09/26 08:23:30;;;;;;;16.70;13.35;;;;;;;19.23;88.89;101681.09;5066664;28;20161;-74
2023/09/26 08:26:02;;;;;;;19.35;14.90;;;;;;;19.36;88.25;101678.31;5065222;28;20139;-79
2023/09/26 08:28:30;;;;;;;20.00;16.83;;;;;;;19.21;87.25;101688.38;5058431;28;20091;-75
2023/09/26 08:31:10;;;;;;;19.55;15.60;;;;;;;19.21;87.80;101679.50;5069225;28;20048;-76
2023/09/26 08:33:37;;;;;;;18.52;15.43;;;;;;;19.19;88.02;101676.13;5067366;28;20045;-74
2023/09/26 08:36:19;;;;;;;20.08;14.38;;;;;;;19.24;87.65;101676.63;5055286;28;20079;-75
2023/09/26 08:38:48;;;;;;;16.38;13.77;;;;;;;19.38;87.36;101675.53;5073536;28;20060;-76
2023/09/26 08:41:19;;;;;;;17.98;14.63;;;;;;;19.31;86.44;101683.16;5062881;28;20076;-73
2023/09/26 08:43:48;;;;;;;16.10;13.38;;;;;;;19.26;86.34;101682.66;5069927;28;20049;-78
2023/09/26 08:46:16;;;;;;;19.73;13.43;;;;;;;19.27;86.51;101681.69;5061641;28;20103;-75
2023/09/26 08:48:45;;;;;;;14.30;12.88;;;;;;;19.50;85.46;101682.56;5040497;28;20049;-76
2023/09/26 08:51:13;;;;;;;15.38;13.40;;;;;;;19.63;85.14;101688.66;5071043;28;20086;-76
2023/09/26 08:53:40;;;;;;;14.73;13.23;;;;;;;19.75;84.26;101680.63;5068853;28;20084;-75
2023/09/26 08:56:07;;;;;;;13.45;11.98;;;;;;;19.82;83.57;101681.81;5046522;28;20146;-78
2023/09/26 08:58:35;;;;;;;16.23;13.38;;;;;;;19.99;83.00;101673.25;5065035;28;20487;-77
2023/09/26 09:01:02;;;;;;;15.55;12.13;;;;;;;20.04;82.33;101676.44;5051553;28;20155;-77
2023/09/26 09:03:30;;;;;;;15.63;12.68;;;;;;;19.98;81.98;101674.25;5067305;28;20044;-78
2023/09/26 09:05:58;;;;;;;13.95;11.65;;;;;;;20.13;82.68;101666.81;5066286;28;20048;-77
2023/09/26 09:08:25;;;;;;;13.23;11.88;;;;;;;20.36;81.52;101670.22;5046560;28;20527;-76
2023/09/26 09:10:56;;;;;;;18.92;13.10;;;;;;;20.39;80.62;101675.31;5066575;28;20145;-78
2023/09/26 09:13:32;;;;;;;14.45;12.95;;;;;;;20.33;80.71;101671.31;5068939;28;20048;-77
2023/09/26 09:16:18;;;;;;;16.80;13.80;;;;;;;20.36;80.57;101671.06;5031013;28;20110;-78
2023/09/26 09:18:50;;;;;;;12.73;11.20;;;;;;;20.54;80.35;101676.75;5070225;28;20084;-76
2023/09/26 09:21:33;;;;;;;15.00;11.40;;;;;;;20.54;79.60;101671.38;5067870;28;20084;-77
2023/09/26 09:24:02;;;;;;;16.92;11.88;;;;;;;20.59;79.52;101666.50;5068562;28;20072;-76
2023/09/26 09:26:32;;;;;;;13.40;11.70;;;;;;;20.61;78.96;101671.69;5063129;28;20565;-74
2023/09/26 09:29:22;;;;;;;15.93;11.63;;;;;;;20.69;78.98;101667.41;5066230;28;20059;-77
2023/09/26 09:31:50;;;;;;;17.58;11.45;;;;;;;20.80;78.10;101655.78;5064411;28;20149;-76
2023/09/26 09:34:20;;;;;;;11.43;9.85;;;;;;;21.03;78.05;101647.56;5045610;28;20098;-76
2023/09/26 09:36:47;;;;;;;11.63;10.48;;;;;;;21.11;76.80;101647.75;5033604;28;20503;-76
2023/09/26 09:39:19;;;;;;;14.10;9.05;;;;;;;21.32;76.22;101639.72;5047609;28;20475;-77
2023/09/26 09:41:47;;;;;;;17.38;10.70;;;;;;;21.51;75.48;101641.59;5045057;28;20569;-76
2023/09/26 09:44:14;;;;;;;12.18;9.32;;;;;;;21.74;75.15;101638.56;5065047;28;20052;-77
2023/09/26 09:46:43;;;;;;;11.52;8.48;;;;;;;21.98;74.62;101642.69;5058931;28;20049;-75
2023/09/26 09:49:11;;;;;;;9.75;8.35;;;;;;;22.09;73.77;101647.06;5061472;28;20053;-76
2023/09/26 09:51:42;;;;;;;10.45;7.57;;;;;;;22.28;73.07;101647.09;5059889;28;20098;-77
2023/09/26 09:54:12;;;;;;;12.75;8.80;;;;;;;22.44;71.69;101641.16;5064946;28;20048;-75
2023/09/26 09:56:40;;;;;;;10.18;7.80;;;;;;;22.49;70.50;101642.44;5053437;28;20580;-75
2023/09/26 09:59:12;;;;;;;21.58;9.50;;;;;;;22.58;70.18;101631.81;5064879;28;20102;-78
2023/09/26 10:01:49;;;;;;;17.52;10.40;;;;;;;22.62;69.27;101630.56;5050452;28;20053;-76
2023/09/26 10:04:18;;;;;;;9.35;7.60;;;;;;;22.81;69.03;101624.28;5045728;28;20068;-77
2023/09/26 10:06:47;;;;;;;9.95;6.82;;;;;;;22.90;67.65;101626.13;5030233;28;20103;-76
2023/09/26 10:09:20;;;;;;;7.13;6.28;;;;;;;23.02;66.78;101624.97;5031409;28;20052;-75
2023/09/26 10:11:48;;;;;;;15.45;7.28;;;;;;;23.00;65.57;101625.09;5024854;28;20056;-75
2023/09/26 10:14:22;;;;;;;8.55;6.47;;;;;;;23.00;65.36;101618.88;5047664;28;20109;-75
2023/09/26 10:16:50;;;;;;;7.50;5.72;;;;;;;23.03;65.49;101621.28;5048665;28;20052;-77
2023/09/26 10:19:18;;;;;;;7.68;5.90;;;;;;;23.28;65.18;101622.44;5028845;28;20135;-78
2023/09/26 10:22:15;;;;;;;6.00;5.32;;;;;;;23.48;64.02;101615.97;5066935;28;20142;-75
2023/09/26 10:24:53;;;;;;;8.93;5.53;;;;;;;23.31;63.65;101615.91;5056052;28;20530;-76
2023/09/26 10:27:38;;;;;;;9.43;5.28;;;;;;;23.60;63.73;101615.75;5053171;28;20802;-77
2023/09/26 10:30:27;;;;;;;9.15;5.40;;;;;;;23.91;62.84;101614.44;5055463;28;20110;-73
2023/09/26 10:32:54;;;;;;;8.63;5.50;;;;;;;24.22;62.73;101609.47;5071424;28;20068;-77
2023/09/26 10:35:22;;;;;;;7.68;5.18;;;;;;;24.42;61.29;101606.66;5071323;28;20260;-77
2023/09/26 10:38:00;;;;;;;6.68;4.82;;;;;;;24.43;61.18;101603.81;5065380;28;20058;-80
2023/09/26 10:40:27;;;;;;;6.88;4.85;;;;;;;24.34;60.24;101599.34;5034471;28;20072;-77
2023/09/26 10:42:54;;;;;;;12.95;5.47;;;;;;;24.45;60.52;101598.25;5070452;28;20063;-76
2023/09/26 10:45:44;;;;;;;7.35;5.35;;;;;;;24.80;60.41;101596.47;5046993;28;20052;-78
2023/09/26 10:48:19;;;;;;;9.07;5.30;;;;;;;24.99;59.39;101594.41;5055889;28;20368;-75
2023/09/26 10:50:47;;;;;;;7.43;4.63;;;;;;;25.23;58.35;101590.97;5073457;28;20538;-77
2023/09/26 10:53:14;;;;;;;7.15;5.05;;;;;;;25.33;57.74;101590.00;5071824;28;20511;-77
2023/09/26 10:55:42;;;;;;;9.98;5.38;;;;;;;25.42;57.29;101584.47;5068502;28;20503;-76
2023/09/26 10:58:09;;;;;;;8.68;5.40;;;;;;;25.45;56.94;101583.31;5070172;28;20053;-78
2023/09/26 11:00:36;;;;;;;8.00;5.60;;;;;;;25.44;56.19;101584.28;5054843;28;20049;-84
2023/09/26 11:03:04;;;;;;;8.07;4.60;;;;;;;25.67;56.90;101582.69;5071745;28;20057;-75
2023/09/26 11:05:33;;;;;;;7.03;4.38;;;;;;;25.98;56.06;101582.06;5072448;28;20057;-79
2023/09/26 11:08:01;;;;;;;7.70;4.32;;;;;;;26.20;55.28;101575.16;5071191;28;20148;-79
2023/09/26 11:10:29;;;;;;;6.18;4.32;;;;;;;26.27;54.71;101574.31;5073641;28;20552;-79
2023/09/26 11:12:57;;;;;;;7.45;4.28;;;;;;;26.45;54.25;101581.41;5067190;28;20048;-80
2023/09/26 11:15:25;;;;;;;6.45;4.80;;;;;;;26.56;53.37;101577.50;5054705;28;20102;-79
2023/09/26 11:17:53;;;;;;;6.55;5.05;;;;;;;26.72;53.27;101580.16;5053334;28;20177;-77